CheckWX is a tool to help pilots better visualize weather data.  It is not intended as a substitute for an official pre-flight weather briefing.

09:20:36 UTC

KAFO METAR
Afton Municipal Airport
Afton, Wyoming, USA
Current

46 mins ago

KAFO 210835Z AUTO 00000KT 10SM -DZ SCT022 OVC031 05/03 A3013 RMK AO2
Observed
Sep-21 @ 08:35 UTC
Visibility
10 SM
Flight Rules
VFR
Conditions
Light Drizzle
Cloud Levels
  • Scattered at 2,200' AGL
  • Overcast at 3,100' AGL
Temperature
C / 41°F
Dewpoint
C / 37°F
Humidity
87%
Altimeter
30.13" Hg
Pressure
1020.32 hPa
Previous

1 hour ago

KAFO 210815Z AUTO 00000KT 10SM BKN022 OVC031 05/04 A3013 RMK AO2
Observed
Sep-21 @ 08:15 UTC
Visibility
10 SM
Flight Rules
MVFR
Cloud Levels
  • Broken at 2,200' AGL
  • Overcast at 3,100' AGL
Temperature
C / 41°F
Dewpoint
C / 39°F
Humidity
93%
Altimeter
30.13" Hg
Pressure
1020.32 hPa
Previous

1 hour ago

KAFO 210755Z AUTO 06003KT 10SM -DZ OVC022 05/03 A3012 RMK AO2
Observed
Sep-21 @ 07:55 UTC
Wind
  • 060° at 3 KTS
Visibility
10 SM
Flight Rules
MVFR
Conditions
Light Drizzle
Cloud Levels
  • Overcast at 2,200' AGL
Temperature
C / 41°F
Dewpoint
C / 37°F
Humidity
87%
Altimeter
30.12" Hg
Pressure
1020.02 hPa